Time;durP1;ratioP1;P1;durP2;ratioP2;P2;SDS_P1;SDS_P2;PMS_P1;PMS_P2;Temp;Humidity;BMP_temperature;BMP_pressure;BME280_temperature;BME280_humidity;BME280_pressure;Samples;Min_cycle;Max_cycle;Signal;HPM_P1;HPM_P2
2022/11/21 00:01:32;;;;;;;;;2.50;1.25;;;;;11.49;69.04;100747.22;4847840;29;45992;-70
2022/11/21 00:03:57;;;;;;;;;3.50;1.75;;;;;11.39;68.66;100728.88;4866207;29;45440;-70
2022/11/21 00:06:23;;;;;;;;;3.00;1.00;;;;;11.48;68.59;100748.13;4863943;29;45455;-70
2022/11/21 00:08:49;;;;;;;;;3.00;1.75;;;;;11.49;68.46;100749.00;4865431;29;45466;-70
2022/11/21 00:11:14;;;;;;;;;1.50;1.50;;;;;11.63;68.80;100772.56;4862807;29;45576;-70
2022/11/21 00:13:40;;;;;;;;;4.00;1.00;;;;;11.36;68.80;100735.22;4864237;29;45385;-70
2022/11/21 00:16:08;;;;;;;;;3.25;2.00;;;;;11.44;68.63;100738.50;4864548;29;45352;-70
2022/11/21 00:18:34;;;;;;;;;1.50;1.50;;;;;11.61;68.89;100775.31;4861186;29;45502;-70
2022/11/21 00:21:12;;;;;;;;;1.25;1.25;;;;;11.48;68.66;100755.28;4860211;29;45731;-70
2022/11/21 00:23:37;;;;;;;;;1.00;1.00;;;;;11.46;68.79;100751.78;4843924;29;45423;-70
2022/11/21 00:26:07;;;;;;;;;3.50;1.00;;;;;11.31;68.82;100722.00;4861575;29;45316;-70
2022/11/21 00:28:33;;;;;;;;;3.00;1.00;;;;;11.31;68.63;100721.16;4863320;29;46379;-71
2022/11/21 00:30:58;;;;;;;;;3.00;1.00;;;;;11.30;68.91;100711.38;4864680;29;45776;-70
2022/11/21 00:33:24;;;;;;;;;2.50;1.50;;;;;11.36;68.94;100718.28;4865136;29;45426;-71
2022/11/21 00:35:49;;;;;;;;;4.00;2.00;;;;;11.28;69.15;100710.56;4864818;29;45607;-70
2022/11/21 00:38:15;;;;;;;;;1.00;1.00;;;;;11.21;69.15;100685.88;4862804;29;46262;-70
2022/11/21 00:40:43;;;;;;;;;3.00;2.00;;;;;11.24;68.79;100693.78;4863127;29;45438;-71
2022/11/21 00:43:09;;;;;;;;;1.25;1.25;;;;;11.18;68.90;100675.28;4862794;29;45493;-71
2022/11/21 00:45:35;;;;;;;;;3.50;2.50;;;;;11.19;69.27;100674.34;4863062;29;45507;-70
2022/11/21 00:48:00;;;;;;;;;3.25;2.00;;;;;11.17;68.90;100668.19;4864421;29;45398;-70
2022/11/21 00:50:25;;;;;;;;;1.50;1.50;;;;;11.26;69.06;100683.91;4863636;29;45495;-70
2022/11/21 00:52:55;;;;;;;;;2.50;2.50;;;;;11.23;69.22;100688.47;4846864;29;45393;-70
2022/11/21 00:55:20;;;;;;;;;2.00;2.00;;;;;11.29;68.98;100688.25;4863682;29;45432;-70
2022/11/21 00:57:46;;;;;;;;;2.75;2.00;;;;;11.22;69.12;100676.03;4862215;29;46399;-70
2022/11/21 01:00:12;;;;;;;;;2.00;2.00;;;;;11.10;69.06;100656.84;4859703;29;45467;-70
2022/11/21 01:02:37;;;;;;;;;3.25;2.00;;;;;11.16;69.33;100657.53;4863193;29;45507;-70
2022/11/21 01:05:03;;;;;;;;;2.00;2.00;;;;;11.35;69.24;100697.84;4862180;29;45530;-70
2022/11/21 01:07:28;;;;;;;;;2.00;2.00;;;;;11.12;69.35;100657.66;4864499;29;46179;-70
2022/11/21 01:09:54;;;;;;;;;2.00;1.00;;;;;11.28;69.52;100684.69;4864295;29;45502;-70
2022/11/21 01:12:19;;;;;;;;;1.75;1.25;;;;;11.08;69.39;100653.38;4864546;29;45480;-72
2022/11/21 01:14:44;;;;;;;;;4.00;3.00;;;;;11.29;69.56;100690.91;4861071;29;45548;-71
2022/11/21 01:17:10;;;;;;;;;2.25;2.25;;;;;11.33;69.63;100689.88;4866169;29;46518;-71
2022/11/21 01:19:35;;;;;;;;;3.25;2.00;;;;;11.10;69.61;100651.50;4862048;29;46774;-71
2022/11/21 01:22:00;;;;;;;;;2.75;1.50;;;;;11.15;69.32;100646.00;4865187;29;45312;-71
2022/11/21 01:24:26;;;;;;;;;2.50;2.00;;;;;11.21;69.65;100652.91;4865529;29;45597;-70
2022/11/21 01:26:53;;;;;;;;;1.75;1.75;;;;;11.15;69.33;100647.81;4864731;29;45449;-71
2022/11/21 01:29:18;;;;;;;;;2.00;2.00;;;;;11.20;69.95;100645.84;4863245;29;47273;-71
2022/11/21 01:31:44;;;;;;;;;4.00;1.50;;;;;11.15;69.58;100629.97;4866390;29;45435;-70
2022/11/21 01:34:09;;;;;;;;;3.00;3.00;;;;;11.26;69.35;100642.91;4865412;29;45402;-71
2022/11/21 01:36:34;;;;;;;;;2.00;2.00;;;;;11.30;69.66;100652.59;4864415;29;45650;-70
2022/11/21 01:39:05;;;;;;;;;4.00;2.50;;;;;11.36;69.54;100649.69;4865247;29;45564;-70
2022/11/21 01:41:40;;;;;;;;;2.50;2.50;;;;;11.26;69.62;100625.09;4863640;29;45475;-70
2022/11/21 01:44:19;;;;;;;;;3.00;0.25;;;;;11.37;69.64;100642.53;4865108;29;45408;-71
2022/11/21 01:46:44;;;;;;;;;5.25;2.50;;;;;11.15;69.61;100619.28;4864937;29;45538;-70
2022/11/21 01:49:12;;;;;;;;;1.00;1.00;;;;;11.23;69.61;100616.34;4862290;29;45315;-70
2022/11/21 01:51:46;;;;;;;;;3.75;2.50;;;;;11.22;69.43;100612.78;4861481;29;46109;-70
2022/11/21 01:54:24;;;;;;;;;4.00;4.00;;;;;11.13;69.92;100597.09;4861568;29;45738;-70
2022/11/21 01:57:14;;;;;;;;;1.00;1.00;;;;;11.15;69.43;100589.03;4862190;29;45573;-70
2022/11/21 02:00:04;;;;;;;;;1.25;1.25;;;;;11.13;69.52;100587.28;4863220;29;45570;-70
2022/11/21 02:02:33;;;;;;;;;4.00;3.00;;;;;11.14;69.66;100590.81;4865696;29;45431;-70
2022/11/21 02:05:00;;;;;;;;;3.00;3.00;;;;;11.26;69.63;100613.53;4846113;29;45555;-70
2022/11/21 02:07:29;;;;;;;;;2.75;2.75;;;;;11.12;69.38;100590.88;4863247;29;46754;-70
2022/11/21 02:09:58;;;;;;;;;5.00;2.25;;;;;11.19;69.30;100617.38;4863788;29;45337;-70
2022/11/21 02:12:44;;;;;;;;;2.75;2.75;;;;;11.27;69.15;100623.31;4864417;29;45307;-70
2022/11/21 02:15:10;;;;;;;;;4.00;2.00;;;;;11.17;69.33;100609.41;4859028;29;45491;-70
2022/11/21 02:17:35;;;;;;;;;2.25;2.00;;;;;11.28;69.35;100619.72;4842802;29;46293;-70
2022/11/21 02:20:05;;;;;;;;;4.00;1.25;;;;;10.98;69.49;100569.16;4862854;29;45422;-70
2022/11/21 02:22:52;;;;;;;;;2.00;2.00;;;;;11.27;69.35;100621.50;4864128;29;45686;-70
2022/11/21 02:25:20;;;;;;;;;3.50;2.75;;;;;11.05;69.54;100583.16;4862995;29;45408;-70
2022/11/21 02:27:49;;;;;;;;;1.50;1.50;;;;;11.08;69.37;100577.69;4860073;29;45613;-70
2022/11/21 02:30:16;;;;;;;;;3.50;2.50;;;;;11.01;69.67;100557.47;4859685;29;45328;-70
2022/11/21 02:32:47;;;;;;;;;4.00;4.00;;;;;10.97;69.36;100539.84;4862755;29;45343;-70
2022/11/21 02:35:17;;;;;;;;;3.00;2.00;;;;;11.05;69.52;100546.63;4863155;29;45527;-70
2022/11/21 02:37:46;;;;;;;;;6.00;3.00;;;;;10.90;69.83;100534.72;4864829;29;45575;-70
2022/11/21 02:40:19;;;;;;;;;5.00;2.00;;;;;11.08;69.66;100551.84;4864325;29;46377;-70
2022/11/21 02:43:02;;;;;;;;;6.75;3.00;;;;;11.12;69.41;100572.16;4865258;29;45628;-70
2022/11/21 02:45:42;;;;;;;;;6.00;3.00;;;;;11.07;69.60;100558.13;4864875;29;45330;-70
2022/11/21 02:48:08;;;;;;;;;2.00;1.00;;;;;10.92;69.72;100530.16;4845942;29;46575;-70
2022/11/21 02:50:36;;;;;;;;;4.00;2.75;;;;;11.11;69.17;100567.78;4855969;29;45507;-70
2022/11/21 02:53:03;;;;;;;;;2.00;0.00;;;;;11.00;69.50;100545.91;4864828;29;45320;-70
2022/11/21 02:55:29;;;;;;;;;3.25;3.00;;;;;10.98;69.36;100538.91;4865383;29;45401;-70
2022/11/21 02:57:54;;;;;;;;;3.75;2.25;;;;;10.91;69.50;100530.25;4865455;29;46104;-70
2022/11/21 03:00:21;;;;;;;;;3.25;3.25;;;;;11.07;69.34;100558.13;4863116;29;45451;-70
2022/11/21 03:02:46;;;;;;;;;2.50;2.00;;;;;11.08;69.76;100565.22;4866419;29;45440;-70
2022/11/21 03:05:18;;;;;;;;;4.25;1.50;;;;;10.94;69.51;100539.03;4863855;29;45439;-70
2022/11/21 03:07:44;;;;;;;;;4.75;3.25;;;;;10.97;69.56;100543.38;4866872;29;45519;-70
2022/11/21 03:10:10;;;;;;;;;3.75;3.00;;;;;10.99;69.51;100541.50;4866469;29;45537;-70
2022/11/21 03:12:37;;;;;;;;;8.25;2.25;;;;;10.86;69.59;100526.84;4866997;29;45343;-69
2022/11/21 03:15:03;;;;;;;;;6.00;3.75;;;;;11.00;69.52;100537.06;4860744;29;45423;-70
2022/11/21 03:17:29;;;;;;;;;3.50;3.00;;;;;10.82;69.89;100509.22;4848501;29;46344;-70
2022/11/21 03:19:54;;;;;;;;;5.00;3.75;;;;;10.89;69.59;100521.41;4865239;29;45262;-70
2022/11/21 03:22:19;;;;;;;;;4.75;2.00;;;;;10.92;69.86;100521.31;4861237;29;45629;-70
2022/11/21 03:24:45;;;;;;;;;3.00;3.00;;;;;11.01;70.05;100523.63;4859714;29;45264;-70
2022/11/21 03:27:10;;;;;;;;;3.75;3.00;;;;;10.88;69.79;100503.66;4865379;29;45540;-70
2022/11/21 03:29:35;;;;;;;;;2.75;2.00;;;;;10.90;69.63;100497.31;4844425;29;45441;-70
2022/11/21 03:32:01;;;;;;;;;4.00;4.00;;;;;10.95;69.73;100502.50;4867079;29;45428;-70
2022/11/21 03:34:26;;;;;;;;;3.25;3.00;;;;;10.89;69.50;100492.03;4864291;29;45318;-70
2022/11/21 03:36:52;;;;;;;;;8.50;4.25;;;;;11.02;69.86;100492.44;4866454;29;46250;-70
2022/11/21 03:39:17;;;;;;;;;8.75;3.00;;;;;10.82;69.88;100456.69;4866111;29;45371;-69
2022/11/21 03:41:43;;;;;;;;;2.75;2.75;;;;;10.85;70.15;100461.06;4867224;29;45419;-70
2022/11/21 03:44:10;;;;;;;;;3.50;3.00;;;;;10.88;69.69;100463.59;4864417;29;45719;-70
2022/11/21 03:46:38;;;;;;;;;5.75;5.00;;;;;10.86;69.89;100447.66;4862742;29;46406;-70
2022/11/21 03:49:04;;;;;;;;;4.25;4.00;;;;;10.78;69.79;100443.53;4867119;29;45654;-69
2022/11/21 03:51:30;;;;;;;;;4.00;3.00;;;;;11.03;70.17;100484.38;4866085;29;45316;-69
2022/11/21 03:53:55;;;;;;;;;5.00;4.00;;;;;10.81;70.08;100451.41;4865408;29;45508;-69
2022/11/21 03:56:21;;;;;;;;;4.25;2.75;;;;;10.91;69.90;100463.50;4865827;29;46020;-70
2022/11/21 03:58:47;;;;;;;;;6.00;3.25;;;;;11.04;69.94;100474.56;4858078;29;45935;-70
2022/11/21 04:01:13;;;;;;;;;5.00;4.00;;;;;10.98;69.86;100459.66;4864495;29;45492;-70
2022/11/21 04:03:40;;;;;;;;;8.00;3.50;;;;;10.79;69.81;100426.56;4849677;29;45466;-71
2022/11/21 04:06:05;;;;;;;;;3.00;3.00;;;;;10.83;69.82;100434.41;4864033;29;45537;-70
2022/11/21 04:08:31;;;;;;;;;4.00;2.50;;;;;10.78;70.17;100423.03;4867193;29;45506;-69
2022/11/21 04:10:56;;;;;;;;;3.00;3.00;;;;;10.79;69.72;100402.53;4867489;29;45487;-70
2022/11/21 04:13:22;;;;;;;;;3.25;3.00;;;;;10.96;70.17;100418.78;4866641;29;45639;-70
2022/11/21 04:15:47;;;;;;;;;6.00;4.75;;;;;10.95;69.94;100409.03;4865375;29;45383;-70
2022/11/21 04:18:13;;;;;;;;;3.00;2.00;;;;;10.80;69.94;100389.13;4850194;29;45501;-69
2022/11/21 04:20:39;;;;;;;;;7.50;5.00;;;;;10.86;69.83;100388.00;4864676;29;45360;-71
2022/11/21 04:23:05;;;;;;;;;2.75;2.75;;;;;10.87;69.79;100395.97;4858598;29;45658;-69
2022/11/21 04:25:31;;;;;;;;;3.50;3.00;;;;;10.84;69.95;100393.44;4866598;29;45477;-70
2022/11/21 04:27:58;;;;;;;;;4.50;3.75;;;;;10.77;69.70;100375.91;4849545;29;45499;-70
2022/11/21 04:30:24;;;;;;;;;4.25;4.25;;;;;10.77;69.82;100369.69;4864487;29;46089;-69
2022/11/21 04:32:53;;;;;;;;;6.25;5.00;;;;;10.73;70.10;100366.28;4835098;29;45592;-70
2022/11/21 04:35:19;;;;;;;;;9.50;5.25;;;;;10.77;70.27;100378.56;4864627;29;45640;-70
2022/11/21 04:37:44;;;;;;;;;5.50;5.50;;;;;10.72;69.93;100356.53;4866410;29;45464;-69
2022/11/21 04:40:11;;;;;;;;;8.00;4.50;;;;;10.78;69.72;100364.28;4865136;29;45429;-70
2022/11/21 04:42:36;;;;;;;;;6.00;5.25;;;;;10.78;70.09;100366.09;4848880;29;45412;-71
2022/11/21 04:45:02;;;;;;;;;5.25;4.50;;;;;10.69;70.31;100353.97;4864413;29;46575;-71
2022/11/21 04:47:27;;;;;;;;;6.25;6.25;;;;;10.72;70.20;100357.38;4849328;29;45642;-71
2022/11/21 04:49:53;;;;;;;;;5.50;5.25;;;;;10.93;70.04;100389.53;4864564;29;45394;-70
2022/11/21 04:52:18;;;;;;;;;5.50;4.75;;;;;10.76;69.94;100347.47;4865391;29;45338;-70
2022/11/21 04:54:43;;;;;;;;;5.75;5.00;;;;;10.72;69.96;100344.03;4865218;29;46185;-70
2022/11/21 04:57:09;;;;;;;;;6.50;4.75;;;;;10.64;70.22;100332.81;4865305;29;46033;-70
2022/11/21 04:59:34;;;;;;;;;3.50;3.50;;;;;10.71;70.03;100341.44;4866104;29;45593;-70
2022/11/21 05:02:01;;;;;;;;;9.00;5.25;;;;;10.66;70.03;100322.03;4864185;29;45652;-70
2022/11/21 05:04:27;;;;;;;;;5.25;5.25;;;;;10.67;69.96;100318.47;4865187;29;46345;-70
2022/11/21 05:06:52;;;;;;;;;6.00;4.50;;;;;10.81;70.08;100339.25;4865829;29;45456;-70
2022/11/21 05:09:18;;;;;;;;;6.25;3.50;;;;;10.71;69.95;100330.78;4865131;29;45757;-70
2022/11/21 05:14:27;;;;;;;;;5.75;3.00;;;;;10.56;69.96;100290.41;4864867;29;45439;-70
2022/11/21 05:16:52;;;;;;;;;6.75;3.75;;;;;10.53;70.29;100284.31;4863393;29;45416;-71
2022/11/21 05:19:18;;;;;;;;;8.50;4.50;;;;;10.58;70.13;100295.69;4865165;29;45548;-70
2022/11/21 05:21:43;;;;;;;;;4.50;3.50;;;;;10.53;70.30;100276.31;4864617;29;45562;-69
2022/11/21 05:24:09;;;;;;;;;8.00;5.50;;;;;10.50;70.15;100276.44;4859338;29;45650;-70
2022/11/21 05:26:34;;;;;;;;;4.00;4.00;;;;;10.68;70.37;100309.53;4865169;29;45315;-70
2022/11/21 05:28:59;;;;;;;;;5.25;4.75;;;;;10.56;70.24;100294.88;4865515;29;45404;-70
2022/11/21 05:31:25;;;;;;;;;6.50;4.75;;;;;10.57;70.45;100300.16;4848419;29;45568;-71
2022/11/21 05:33:50;;;;;;;;;6.50;4.00;;;;;10.69;70.65;100321.94;4862076;29;46374;-70
2022/11/21 05:36:15;;;;;;;;;16.50;5.25;;;;;10.57;70.22;100305.50;4845303;29;45539;-70
2022/11/21 05:38:41;;;;;;;;;6.50;4.00;;;;;10.62;70.08;100310.63;4857080;29;45249;-70
2022/11/21 05:41:07;;;;;;;;;4.00;4.00;;;;;10.58;70.15;100287.66;4866202;29;45409;-70
2022/11/21 05:43:45;;;;;;;;;9.75;4.50;;;;;10.77;70.46;100322.50;4845994;29;46959;-70
2022/11/21 05:46:15;;;;;;;;;10.75;7.50;;;;;10.67;70.18;100300.63;4848490;29;45690;-70
2022/11/21 05:48:41;;;;;;;;;6.50;5.00;;;;;10.54;70.00;100281.59;4865330;29;45647;-70
2022/11/21 05:51:06;;;;;;;;;7.50;6.50;;;;;10.57;70.55;100275.25;4865834;29;45424;-70
2022/11/21 05:53:33;;;;;;;;;5.75;5.75;;;;;10.56;70.10;100270.84;4846975;29;46234;-70
2022/11/21 05:56:06;;;;;;;;;8.00;5.00;;;;;10.68;70.11;100280.16;4847455;29;45582;-70
2022/11/21 05:58:33;;;;;;;;;5.00;5.00;;;;;10.57;70.10;100257.44;4847775;29;45345;-70
2022/11/21 06:00:59;;;;;;;;;9.25;6.00;;;;;10.59;70.44;100270.72;4861911;29;45571;-70
2022/11/21 06:03:31;;;;;;;;;10.75;8.25;;;;;10.55;70.36;100245.09;4863994;29;45523;-70
2022/11/21 06:06:11;;;;;;;;;7.00;5.75;;;;;10.49;70.72;100245.31;4864300;29;45453;-70
2022/11/21 06:08:45;;;;;;;;;6.00;3.00;;;;;10.62;70.26;100259.06;4864351;29;45499;-71
2022/11/21 06:11:13;;;;;;;;;11.50;5.75;;;;;10.48;70.29;100228.47;4868694;29;45337;-69
2022/11/21 06:13:39;;;;;;;;;5.00;5.00;;;;;10.42;70.30;100219.81;4862538;29;45565;-70
2022/11/21 06:16:15;;;;;;;;;5.25;5.00;;;;;10.42;70.33;100211.81;4867272;29;45362;-70
2022/11/21 06:18:43;;;;;;;;;12.50;9.00;;;;;10.57;70.46;100221.88;4867508;29;45432;-71
2022/11/21 06:21:15;;;;;;;;;9.25;6.25;;;;;10.39;70.60;100183.47;4865879;29;45510;-70
2022/11/21 06:23:40;;;;;;;;;5.25;4.75;;;;;10.37;70.59;100185.31;4866116;29;45528;-70
2022/11/21 06:26:07;;;;;;;;;9.00;9.00;;;;;10.44;70.90;100189.50;4868196;29;45717;-70
2022/11/21 06:28:35;;;;;;;;;7.00;6.00;;;;;10.65;70.67;100222.44;4868820;29;45265;-70
2022/11/21 06:31:12;;;;;;;;;9.75;6.75;;;;;10.47;70.82;100191.16;4866020;29;45405;-70
2022/11/21 06:33:39;;;;;;;;;11.00;9.00;;;;;10.48;70.32;100184.91;4847772;29;47281;-70
2022/11/21 06:36:08;;;;;;;;;10.75;7.75;;;;;10.49;70.37;100175.94;4865848;29;45515;-69
2022/11/21 06:38:33;;;;;;;;;9.00;8.00;;;;;10.52;70.43;100176.72;4866407;29;45362;-70
2022/11/21 06:41:25;;;;;;;;;16.50;11.00;;;;;10.60;70.46;100197.72;4867357;29;45433;-69
2022/11/21 06:43:51;;;;;;;;;10.50;9.00;;;;;10.47;70.71;100164.47;4862096;29;45993;-70
2022/11/21 06:46:17;;;;;;;;;11.00;9.25;;;;;10.47;70.31;100175.16;4866613;29;45394;-70
2022/11/21 06:48:43;;;;;;;;;14.75;8.25;;;;;10.37;70.26;100172.88;4847399;29;46507;-70
2022/11/21 06:51:15;;;;;;;;;15.00;9.50;;;;;10.40;70.53;100179.88;4866156;29;45314;-70
2022/11/21 06:53:41;;;;;;;;;12.25;11.75;;;;;10.38;70.43;100171.91;4844122;29;47189;-70
2022/11/21 06:56:06;;;;;;;;;10.25;7.50;;;;;10.30;70.48;100158.00;4848991;29;45414;-70
2022/11/21 06:58:32;;;;;;;;;12.25;10.25;;;;;10.31;70.44;100150.88;4864721;29;45349;-69
2022/11/21 07:01:02;;;;;;;;;10.75;10.25;;;;;10.30;70.72;100138.44;4863192;29;45613;-70
2022/11/21 07:03:27;;;;;;;;;10.00;8.00;;;;;10.25;70.84;100121.78;4865061;29;45512;-70
2022/11/21 07:05:57;;;;;;;;;11.00;9.25;;;;;10.22;70.33;100113.88;4847879;29;45310;-70
2022/11/21 07:08:22;;;;;;;;;12.75;11.50;;;;;10.12;70.98;100094.72;4865821;29;45326;-70
2022/11/21 07:10:48;;;;;;;;;9.25;8.50;;;;;10.32;70.74;100110.84;4864701;29;45226;-70
2022/11/21 07:13:22;;;;;;;;;12.00;10.25;;;;;10.14;70.52;100077.75;4862399;29;46007;-69
2022/11/21 07:15:52;;;;;;;;;14.75;10.50;;;;;10.15;70.70;100076.78;4856124;29;47478;-70
2022/11/21 07:18:19;;;;;;;;;11.75;8.50;;;;;10.12;70.51;100092.06;4859501;29;45555;-70
2022/11/21 07:20:45;;;;;;;;;5.00;5.00;;;;;10.01;70.50;100071.19;4866430;29;45326;-70
2022/11/21 07:23:11;;;;;;;;;10.75;9.75;;;;;10.03;70.94;100061.31;4858593;29;45512;-70
2022/11/21 07:25:38;;;;;;;;;8.50;4.00;;;;;10.08;70.70;100067.31;4866194;29;45464;-70
2022/11/21 07:28:05;;;;;;;;;8.75;6.50;;;;;10.02;70.20;100057.78;4865649;29;45397;-70
2022/11/21 07:30:30;;;;;;;;;9.50;9.00;;;;;9.98;70.75;100050.81;4864769;29;45395;-70
2022/11/21 07:32:57;;;;;;;;;15.25;11.00;;;;;9.84;71.05;100023.88;4864197;29;45531;-70
2022/11/21 07:35:23;;;;;;;;;13.75;8.25;;;;;10.06;71.04;100060.34;4863490;29;45820;-70
2022/11/21 07:37:48;;;;;;;;;14.50;10.25;;;;;9.87;71.08;100030.88;4862220;29;45438;-72
2022/11/21 07:40:14;;;;;;;;;11.25;10.50;;;;;9.88;71.35;100030.81;4862581;29;45598;-72
2022/11/21 07:42:39;;;;;;;;;15.00;12.25;;;;;9.88;70.77;100032.63;4867588;29;45434;-71
2022/11/21 07:45:05;;;;;;;;;12.25;12.25;;;;;9.87;70.89;100031.72;4867175;29;45825;-71
2022/11/21 07:47:30;;;;;;;;;17.75;14.25;;;;;10.10;71.10;100064.59;4867057;29;45423;-71
2022/11/21 07:49:56;;;;;;;;;18.25;15.75;;;;;9.89;70.98;100018.34;4862445;29;45520;-71
2022/11/21 07:52:21;;;;;;;;;12.75;10.50;;;;;9.89;70.79;100021.91;4867863;29;46307;-72
2022/11/21 07:54:47;;;;;;;;;16.25;16.25;;;;;9.82;71.10;99997.28;4867088;29;45261;-71
2022/11/21 07:57:12;;;;;;;;;17.25;16.25;;;;;9.82;70.96;99996.41;4866659;29;45793;-73
2022/11/21 07:59:37;;;;;;;;;20.50;19.00;;;;;9.83;70.78;99991.00;4857532;29;45430;-72
2022/11/21 08:02:03;;;;;;;;;22.00;18.25;;;;;9.75;70.69;99954.94;4866473;29;45410;-71
2022/11/21 08:04:28;;;;;;;;;19.00;17.25;;;;;9.82;70.99;99951.09;4864266;29;45249;-71
2022/11/21 08:06:54;;;;;;;;;17.25;14.00;;;;;10.04;71.32;99983.06;4863986;29;45590;-71
2022/11/21 08:09:19;;;;;;;;;17.25;15.50;;;;;9.82;70.94;99954.63;4863542;29;45534;-70
2022/11/21 08:11:44;;;;;;;;;12.25;10.25;;;;;9.91;70.86;99948.03;4863613;29;45594;-71
2022/11/21 08:14:10;;;;;;;;;20.00;15.75;;;;;9.92;71.21;99968.44;4861770;29;45528;-70
2022/11/21 08:16:35;;;;;;;;;15.75;14.50;;;;;9.78;71.26;99939.69;4855898;29;45527;-71
2022/11/21 08:19:01;;;;;;;;;15.75;13.75;;;;;9.93;71.68;99954.16;4863023;29;45431;-71
2022/11/21 08:21:27;;;;;;;;;14.75;13.00;;;;;9.94;71.09;99947.91;4853972;29;46228;-70
2022/11/21 08:23:54;;;;;;;;;14.75;14.50;;;;;9.91;71.45;99945.38;4860602;29;45639;-69
2022/11/21 08:26:19;;;;;;;;;13.50;10.50;;;;;9.87;70.76;99929.56;4846249;29;45471;-69
2022/11/21 08:28:45;;;;;;;;;14.50;11.00;;;;;10.15;71.67;99972.78;4863185;29;45390;-69
2022/11/21 08:31:11;;;;;;;;;18.50;15.75;;;;;9.95;70.95;99946.97;4858551;29;45668;-68
2022/11/21 08:33:36;;;;;;;;;16.75;15.75;;;;;9.84;71.52;99927.91;4842734;29;45546;-68
2022/11/21 08:36:06;;;;;;;;;12.75;11.00;;;;;10.00;71.18;99957.44;4863526;29;45446;-68
2022/11/21 08:38:31;;;;;;;;;13.75;11.25;;;;;9.97;71.49;99944.25;4863705;29;45557;-70
2022/11/21 08:43:41;;;;;;;;;14.50;14.50;;;;;9.93;71.54;99934.66;4856997;29;45470;-70
2022/11/21 08:46:07;;;;;;;;;10.50;10.00;;;;;10.18;71.62;99986.00;4869248;29;45473;-70
2022/11/21 08:48:32;;;;;;;;;15.50;13.50;;;;;10.07;71.76;99963.38;4868479;29;46382;-70
2022/11/21 08:50:58;;;;;;;;;13.50;10.00;;;;;9.95;71.57;99944.31;4845764;29;46554;-70
2022/11/21 08:53:23;;;;;;;;;14.25;10.75;;;;;10.05;71.22;99954.59;4858678;29;45490;-69
2022/11/21 08:55:48;;;;;;;;;10.00;9.00;;;;;10.00;71.89;99941.44;4856075;29;45618;-72
2022/11/21 08:58:14;;;;;;;;;10.75;10.00;;;;;9.88;71.48;99910.84;4860802;29;45892;-69
2022/11/21 09:00:39;;;;;;;;;11.75;10.00;;;;;10.06;71.81;99927.88;4861732;29;45356;-69
2022/11/21 09:03:06;;;;;;;;;10.25;8.00;;;;;10.11;71.48;99928.53;4861823;29;45767;-66
2022/11/21 09:05:32;;;;;;;;;16.00;10.00;;;;;10.03;71.74;99885.31;4858354;29;45421;-67
2022/11/21 09:07:58;;;;;;;;;8.25;7.25;;;;;10.12;71.90;99908.94;4842823;29;45748;-66
2022/11/21 09:10:25;;;;;;;;;9.75;9.00;;;;;10.12;71.81;99903.59;4861918;29;46671;-67
2022/11/21 09:12:51;;;;;;;;;11.50;10.00;;;;;9.92;72.31;99868.94;4862686;29;45956;-66
2022/11/21 09:18:04;;;;;;;;;11.50;10.00;;;;;9.95;72.07;99863.47;4858906;29;45430;-67
2022/11/21 09:20:32;;;;;;;;;10.75;9.25;;;;;10.10;72.11;99899.25;4860592;29;46246;-66
2022/11/21 09:23:03;;;;;;;;;8.50;6.25;;;;;10.14;72.16;99903.50;4860626;29;46272;-66
2022/11/21 09:25:28;;;;;;;;;7.75;6.50;;;;;10.12;71.88;99879.59;4848869;29;45486;-66
2022/11/21 09:27:58;;;;;;;;;10.50;8.25;;;;;10.11;72.18;99863.66;4842014;29;46451;-67
2022/11/21 09:30:24;;;;;;;;;8.75;8.75;;;;;9.96;71.89;99844.75;4845114;29;45553;-67
2022/11/21 09:32:49;;;;;;;;;10.50;7.50;;;;;10.13;71.82;99854.66;4860629;29;45286;-67
2022/11/21 09:35:15;;;;;;;;;10.50;8.50;;;;;10.17;72.25;99858.94;4861856;29;45759;-66
2022/11/21 09:37:40;;;;;;;;;7.50;5.50;;;;;10.09;71.81;99845.06;4862979;29;45519;-66
2022/11/21 09:40:09;;;;;;;;;10.25;8.00;;;;;10.09;71.74;99825.50;4860489;29;46365;-67
2022/11/21 09:43:00;;;;;;;;;14.00;9.50;;;;;9.93;71.63;99794.22;4861222;29;45828;-66
2022/11/21 09:45:36;;;;;;;;;9.50;8.25;;;;;10.05;72.09;99797.28;4858342;29;45509;-66
2022/11/21 09:48:10;;;;;;;;;10.75;5.50;;;;;10.05;72.17;99789.28;4865129;29;45529;-67
2022/11/21 09:50:40;;;;;;;;;10.00;10.00;;;;;9.90;72.11;99753.50;4848990;29;45430;-66
2022/11/21 09:53:14;;;;;;;;;9.00;8.00;;;;;10.03;71.94;99765.34;4849107;29;45666;-65
2022/11/21 09:55:53;;;;;;;;;10.50;10.00;;;;;10.10;72.27;99771.25;4866955;29;45358;-65
2022/11/21 09:58:34;;;;;;;;;8.50;7.25;;;;;10.07;71.96;99758.06;4861449;29;45627;-65
2022/11/21 10:01:00;;;;;;;;;12.25;9.25;;;;;9.81;72.51;99722.81;4848318;29;47329;-65
2022/11/21 10:03:35;;;;;;;;;10.25;8.25;;;;;9.98;72.34;99738.88;4847428;29;46128;-65
2022/11/21 10:06:04;;;;;;;;;10.25;8.75;;;;;9.96;72.19;99731.91;4865078;29;45421;-65
2022/11/21 10:08:44;;;;;;;;;10.75;9.50;;;;;9.95;72.37;99711.50;4864160;29;45455;-65
2022/11/21 10:11:35;;;;;;;;;9.25;6.50;;;;;10.05;72.51;99726.13;4865374;29;45459;-65
2022/11/21 10:14:26;;;;;;;;;7.75;6.75;;;;;9.98;72.42;99704.22;4858591;29;45918;-65
2022/11/21 10:16:57;;;;;;;;;7.75;7.00;;;;;10.01;72.40;99701.41;4858208;29;45527;-65
2022/11/21 10:20:01;;;;;;;;;10.50;7.00;;;;;10.05;72.73;99685.28;4858045;29;46455;-65
2022/11/21 10:22:48;;;;;;;;;5.50;4.00;;;;;10.03;72.35;99693.34;4845062;29;45487;-65
2022/11/21 10:25:23;;;;;;;;;11.00;7.00;;;;;9.92;72.83;99669.88;4856798;29;45757;-65
2022/11/21 10:28:08;;;;;;;;;10.25;8.00;;;;;10.08;72.85;99679.81;4847432;29;45331;-66
2022/11/21 10:30:34;;;;;;;;;16.00;9.00;;;;;10.09;72.70;99658.41;4861443;29;46085;-66
2022/11/21 10:33:04;;;;;;;;;6.75;5.50;;;;;10.00;72.58;99635.69;4862740;29;45455;-65
2022/11/21 10:35:40;;;;;;;;;8.50;7.00;;;;;10.12;72.44;99649.38;4850253;29;45672;-66
2022/11/21 10:38:18;;;;;;;;;10.50;9.00;;;;;10.13;72.36;99643.13;4865898;29;45441;-67
2022/11/21 10:40:49;;;;;;;;;12.00;6.25;;;;;9.95;72.65;99608.41;4862769;29;45394;-66
2022/11/21 10:46:04;;;;;;;;;7.00;4.50;;;;;10.16;73.14;99630.50;4859399;29;45388;-66
2022/11/21 10:48:29;;;;;;;;;8.50;6.00;;;;;10.25;73.03;99620.34;4848180;29;45661;-66
2022/11/21 10:51:16;;;;;;;;;7.75;4.75;;;;;10.26;72.52;99606.91;4849642;29;45598;-66
2022/11/21 10:56:26;;;;;;;;;7.25;7.00;;;;;10.25;72.79;99594.50;4865186;29;45691;-66
2022/11/21 10:58:58;;;;;;;;;10.00;5.50;;;;;10.23;72.39;99595.53;4863525;29;45407;-66
2022/11/21 11:01:31;;;;;;;;;7.25;4.25;;;;;10.25;72.73;99583.00;4865901;29;45399;-66
2022/11/21 11:04:08;;;;;;;;;5.00;5.00;;;;;10.30;72.31;99584.47;4863682;29;46260;-66
2022/11/21 11:06:38;;;;;;;;;4.25;4.00;;;;;10.07;72.56;99536.75;4862478;29;45523;-67
2022/11/21 11:09:05;;;;;;;;;8.75;6.75;;;;;10.29;72.79;99569.44;4865972;29;45397;-66
2022/11/21 11:11:31;;;;;;;;;7.25;5.00;;;;;10.24;72.55;99554.59;4864513;29;45408;-66
2022/11/21 11:14:02;;;;;;;;;5.75;4.25;;;;;10.34;72.93;99567.44;4865622;29;46260;-66
2022/11/21 11:16:30;;;;;;;;;7.00;4.50;;;;;10.28;72.41;99550.84;4863702;29;45426;-65
2022/11/21 11:18:58;;;;;;;;;7.75;7.75;;;;;10.29;72.57;99536.53;4861731;29;45453;-66
2022/11/21 11:21:46;;;;;;;;;4.00;4.00;;;;;10.42;72.98;99544.81;4863143;29;45595;-66
2022/11/21 11:24:11;;;;;;;;;10.00;8.00;;;;;10.47;72.68;99542.78;4865710;29;45504;-66
2022/11/21 11:26:46;;;;;;;;;4.75;4.75;;;;;10.46;72.46;99536.59;4848582;29;45278;-66
2022/11/21 11:29:15;;;;;;;;;4.00;3.25;;;;;10.46;72.22;99531.25;4866044;29;45377;-67
2022/11/21 11:31:43;;;;;;;;;7.75;6.00;;;;;10.45;72.37;99526.00;4853677;29;45491;-66
2022/11/21 11:34:14;;;;;;;;;8.00;4.25;;;;;10.32;72.51;99485.75;4843407;29;46812;-66
2022/11/21 11:36:54;;;;;;;;;8.75;5.75;;;;;10.57;72.12;99512.91;4830848;29;45598;-66
2022/11/21 11:39:49;;;;;;;;;6.00;6.00;;;;;10.61;72.45;99497.59;4830681;29;45569;-66
2022/11/21 11:47:58;;;;;;;;;12.25;4.50;;;;;10.70;71.44;99453.53;4854183;29;45440;-66
2022/11/21 11:50:31;;;;;;;;;11.75;9.50;;;;;10.61;72.08;99428.22;4866093;29;45405;-67